createdAt,value
2019-01-23T00:00:47.230Z,-7.30
2019-01-23T00:01:54.084Z,-7.30
2019-01-23T00:02:58.880Z,-7.30
2019-01-23T00:04:03.687Z,-7.20
2019-01-23T00:05:08.800Z,-7.20
2019-01-23T00:06:13.744Z,-7.20
2019-01-23T00:07:18.628Z,-7.20
2019-01-23T00:08:23.420Z,-7.20
2019-01-23T00:09:29.288Z,-7.30
2019-01-23T00:10:34.338Z,-7.30
2019-01-23T00:11:39.237Z,-7.20
2019-01-23T00:12:44.077Z,-7.30
2019-01-23T00:13:48.986Z,-7.30
2019-01-23T00:14:53.767Z,-7.30
2019-01-23T00:15:58.639Z,-7.20
2019-01-23T00:17:03.515Z,-7.20
2019-01-23T00:18:08.541Z,-7.20
2019-01-23T00:19:13.449Z,-7.20
2019-01-23T00:20:18.394Z,-7.20
2019-01-23T00:21:23.395Z,-7.20
2019-01-23T00:22:28.412Z,-7.20
2019-01-23T00:23:33.172Z,-7.30
2019-01-23T00:24:38.073Z,-7.30
2019-01-23T00:25:43.101Z,-7.30
2019-01-23T00:26:47.973Z,-7.30
2019-01-23T00:27:52.813Z,-7.40
2019-01-23T00:28:57.700Z,-7.40
2019-01-23T00:30:02.608Z,-7.30
2019-01-23T00:31:07.488Z,-7.30
2019-01-23T00:32:15.499Z,-7.30
2019-01-23T00:33:20.608Z,-7.40
2019-01-23T00:34:25.493Z,-7.40
2019-01-23T00:35:30.395Z,-7.40
2019-01-23T00:36:35.392Z,-7.40
2019-01-23T00:37:40.499Z,-7.40
2019-01-23T00:38:45.885Z,-7.30
2019-01-23T00:39:50.740Z,-7.30
2019-01-23T00:40:55.497Z,-7.30
2019-01-23T00:42:00.408Z,-7.30
2019-01-23T00:43:05.468Z,-7.30
2019-01-23T00:44:10.218Z,-7.30
2019-01-23T00:45:15.324Z,-7.30
2019-01-23T00:46:20.120Z,-7.30
2019-01-23T00:47:25.103Z,-7.30
2019-01-23T00:48:30.032Z,-7.30
2019-01-23T00:49:35.029Z,-7.30
2019-01-23T00:50:39.996Z,-7.30
2019-01-23T00:51:45.008Z,-7.30
2019-01-23T00:52:49.868Z,-7.30
2019-01-23T00:53:55.417Z,-7.30
2019-01-23T00:55:00.219Z,-7.30
2019-01-23T00:56:05.323Z,-7.30
2019-01-23T00:57:10.362Z,-7.30
2019-01-23T00:58:15.279Z,-7.20
2019-01-23T00:59:20.079Z,-7.30
2019-01-23T01:00:26.264Z,-7.30
2019-01-23T01:01:31.239Z,-7.20
2019-01-23T01:02:36.063Z,-7.20
2019-01-23T01:03:40.968Z,-7.20
2019-01-23T01:04:45.808Z,-7.20
2019-01-23T01:05:50.716Z,-7.20
2019-01-23T01:06:55.662Z,-7.20
2019-01-23T01:08:00.612Z,-7.20
2019-01-23T01:09:09.113Z,-7.20
2019-01-23T01:10:15.210Z,-7.10
2019-01-23T01:11:20.890Z,-7.10
2019-01-23T01:12:25.737Z,-7.10
2019-01-23T01:13:30.803Z,-7.10
2019-01-23T01:14:35.689Z,-7.10
2019-01-23T01:15:40.548Z,-7.20
2019-01-23T01:16:45.322Z,-7.20
2019-01-23T01:17:50.124Z,-7.20
2019-01-23T01:18:55.016Z,-7.20
2019-01-23T01:19:59.900Z,-7.20
2019-01-23T01:21:04.807Z,-7.20
2019-01-23T01:22:09.611Z,-7.10
2019-01-23T01:23:14.684Z,-7.20
2019-01-23T01:24:19.427Z,-7.10
2019-01-23T01:25:24.324Z,-7.20
2019-01-23T01:26:29.222Z,-7.20
2019-01-23T01:27:34.120Z,-7.20
2019-01-23T01:28:39.067Z,-7.20
2019-01-23T01:29:43.969Z,-7.20
2019-01-23T01:30:48.724Z,-7.20
2019-01-23T01:31:53.596Z,-7.20
2019-01-23T01:32:58.500Z,-7.30
2019-01-23T01:34:03.408Z,-7.20
2019-01-23T01:35:08.291Z,-7.20
2019-01-23T01:36:13.199Z,-7.20
2019-01-23T01:37:18.051Z,-7.20
2019-01-23T01:38:22.955Z,-7.20
2019-01-23T01:39:27.945Z,-7.20
2019-01-23T01:40:32.691Z,-7.20
2019-01-23T01:41:37.628Z,-7.20
2019-01-23T01:42:42.548Z,-7.20
2019-01-23T01:43:47.467Z,-7.20
2019-01-23T01:44:52.260Z,-7.20
2019-01-23T01:45:57.052Z,-7.20
2019-01-23T01:47:01.933Z,-7.10
2019-01-23T01:48:07.184Z,-7.20
2019-01-23T01:49:11.963Z,-7.10
2019-01-23T01:50:21.281Z,-7.20
2019-01-23T01:51:26.297Z,-7.20
2019-01-23T01:52:32.427Z,-7.20
2019-01-23T01:53:37.217Z,-7.20
2019-01-23T01:54:42.088Z,-7.20
2019-01-23T01:55:46.838Z,-7.20
2019-01-23T01:56:54.936Z,-7.20
2019-01-23T01:58:02.140Z,-7.20
2019-01-23T01:59:06.963Z,-7.20
2019-01-23T02:00:22.359Z,-7.20
2019-01-23T02:01:27.319Z,-7.20
2019-01-23T02:02:32.046Z,-7.20
2019-01-23T02:03:36.902Z,-7.20
2019-01-23T02:04:41.834Z,-7.20
2019-01-23T02:05:46.734Z,-7.20
2019-01-23T02:06:51.659Z,-7.20
2019-01-23T02:07:56.539Z,-7.20
2019-01-23T02:09:01.337Z,-7.20
2019-01-23T02:10:08.096Z,-7.20
2019-01-23T02:11:12.960Z,-7.20
2019-01-23T02:12:17.696Z,-7.20
2019-01-23T02:13:23.688Z,-7.20
2019-01-23T02:14:28.701Z,-7.20
2019-01-23T02:15:33.591Z,-7.10
2019-01-23T02:16:38.321Z,-7.20
2019-01-23T02:17:43.295Z,-7.20
2019-01-23T02:18:48.223Z,-7.20
2019-01-23T02:19:53.064Z,-7.20
2019-01-23T02:20:58.277Z,-7.20
2019-01-23T02:22:03.188Z,-7.20
2019-01-23T02:23:08.177Z,-7.20
2019-01-23T02:24:13.103Z,-7.20
2019-01-23T02:25:18.325Z,-7.20
2019-01-23T02:26:23.220Z,-7.20
2019-01-23T02:27:27.978Z,-7.20
2019-01-23T02:28:32.883Z,-7.20
2019-01-23T02:29:37.814Z,-7.20
2019-01-23T02:30:42.763Z,-7.20
2019-01-23T02:31:47.513Z,-7.20
2019-01-23T02:32:52.388Z,-7.20
2019-01-23T02:33:57.364Z,-7.20
2019-01-23T02:35:02.123Z,-7.20
2019-01-23T02:36:07.060Z,-7.20
2019-01-23T02:37:12.101Z,-7.30
2019-01-23T02:38:16.980Z,-7.20
2019-01-23T02:39:21.887Z,-7.20
2019-01-23T02:40:26.699Z,-7.30
2019-01-23T02:41:31.525Z,-7.20
2019-01-23T02:42:36.308Z,-7.20
2019-01-23T02:43:41.226Z,-7.20
2019-01-23T02:44:46.025Z,-7.20
2019-01-23T02:45:50.796Z,-7.20
2019-01-23T02:46:55.692Z,-7.30
2019-01-23T02:48:03.175Z,-7.30
2019-01-23T02:49:08.084Z,-7.30
2019-01-23T02:50:14.222Z,-7.30
2019-01-23T02:51:19.081Z,-7.30
2019-01-23T02:52:23.845Z,-7.30
2019-01-23T02:53:29.852Z,-7.30
2019-01-23T02:54:34.745Z,-7.30
2019-01-23T02:55:39.649Z,-7.30
2019-01-23T02:56:44.407Z,-7.30
2019-01-23T02:57:49.206Z,-7.30
2019-01-23T02:58:54.088Z,-7.30
2019-01-23T02:59:59.000Z,-7.30
2019-01-23T03:01:04.032Z,-7.30
2019-01-23T03:02:08.962Z,-7.30
2019-01-23T03:03:13.861Z,-7.40
2019-01-23T03:04:18.756Z,-7.40
2019-01-23T03:05:23.724Z,-7.40
2019-01-23T03:06:28.488Z,-7.40
2019-01-23T03:07:33.386Z,-7.40
2019-01-23T03:08:38.294Z,-7.40
2019-01-23T03:09:43.169Z,-7.40
2019-01-23T03:10:47.947Z,-7.50
2019-01-23T03:11:52.741Z,-7.50
2019-01-23T03:12:57.597Z,-7.50
2019-01-23T03:14:02.566Z,-7.50
2019-01-23T03:15:09.054Z,-7.50
2019-01-23T03:16:13.817Z,-7.60
2019-01-23T03:17:18.560Z,-7.60
2019-01-23T03:18:23.329Z,-7.60
2019-01-23T03:19:28.356Z,-7.70
2019-01-23T03:20:33.260Z,-7.70
2019-01-23T03:21:38.012Z,-7.80
2019-01-23T03:22:42.791Z,-7.90
2019-01-23T03:23:47.836Z,-8.00
2019-01-23T03:24:52.652Z,-8.00
2019-01-23T03:25:57.408Z,-8.00
2019-01-23T03:27:02.190Z,-7.90
2019-01-23T03:28:07.089Z,-7.80
2019-01-23T03:29:12.014Z,-7.70
2019-01-23T03:30:19.278Z,-7.80
2019-01-23T03:31:24.129Z,-7.80
2019-01-23T03:32:29.251Z,-7.80
2019-01-23T03:33:34.077Z,-7.80
2019-01-23T03:34:38.905Z,-7.80
2019-01-23T03:35:43.975Z,-7.70
2019-01-23T03:36:48.909Z,-7.70
2019-01-23T03:37:53.877Z,-7.60
2019-01-23T03:38:58.632Z,-7.60
2019-01-23T03:40:03.584Z,-7.60
2019-01-23T03:41:08.536Z,-7.60
2019-01-23T03:42:13.350Z,-7.70
2019-01-23T03:43:18.128Z,-7.70
2019-01-23T03:44:23.032Z,-7.70
2019-01-23T03:45:27.948Z,-7.80
2019-01-23T03:46:32.913Z,-7.80
2019-01-23T03:47:37.833Z,-7.80
2019-01-23T03:48:42.703Z,-7.80
2019-01-23T03:49:47.476Z,-7.80
2019-01-23T03:50:52.349Z,-7.70
2019-01-23T03:51:57.236Z,-7.70
2019-01-23T03:53:02.230Z,-7.70
2019-01-23T03:54:07.123Z,-7.70
2019-01-23T03:55:12.541Z,-7.80
2019-01-23T03:56:17.400Z,-7.80
2019-01-23T03:57:22.182Z,-7.80
2019-01-23T03:58:27.021Z,-7.80
2019-01-23T03:59:32.313Z,-7.90
2019-01-23T04:00:37.336Z,-7.90
2019-01-23T04:01:42.085Z,-7.90
2019-01-23T04:02:48.572Z,-7.90
2019-01-23T04:03:53.473Z,-7.90
2019-01-23T04:04:58.367Z,-7.90
2019-01-23T04:06:03.145Z,-7.90
2019-01-23T04:07:08.016Z,-7.90
2019-01-23T04:08:12.900Z,-7.90
2019-01-23T04:09:17.788Z,-7.90
2019-01-23T04:10:22.696Z,-7.90
2019-01-23T04:11:27.700Z,-7.90
2019-01-23T04:12:32.593Z,-7.90
2019-01-23T04:13:37.342Z,-8.00
2019-01-23T04:14:42.288Z,-8.00
2019-01-23T04:15:47.154Z,-8.00
2019-01-23T04:16:51.944Z,-8.10
2019-01-23T04:17:56.853Z,-8.10
2019-01-23T04:19:01.689Z,-8.10
2019-01-23T04:20:10.388Z,-8.20
2019-01-23T04:21:15.170Z,-8.30
2019-01-23T04:22:19.904Z,-8.40
2019-01-23T04:23:24.816Z,-8.50
2019-01-23T04:24:29.600Z,-8.50
2019-01-23T04:25:34.573Z,-8.50
2019-01-23T04:26:39.353Z,-8.50
2019-01-23T04:27:44.265Z,-8.50
2019-01-23T04:28:49.148Z,-8.50
2019-01-23T04:29:54.198Z,-8.50
2019-01-23T04:30:58.940Z,-8.50
2019-01-23T04:32:03.902Z,-8.50
2019-01-23T04:33:08.900Z,-8.50
2019-01-23T04:34:15.089Z,-8.50
2019-01-23T04:35:21.364Z,-8.50
2019-01-23T04:36:26.262Z,-8.50
2019-01-23T04:37:31.300Z,-8.50
2019-01-23T04:38:36.286Z,-8.50
2019-01-23T04:39:41.046Z,-8.50
2019-01-23T04:40:45.959Z,-8.60
2019-01-23T04:41:50.954Z,-8.60
2019-01-23T04:42:55.856Z,-8.60
2019-01-23T04:44:00.652Z,-8.60
2019-01-23T04:45:07.227Z,-8.60
2019-01-23T04:46:11.988Z,-8.70
2019-01-23T04:47:16.792Z,-8.70
2019-01-23T04:48:22.727Z,-8.70
2019-01-23T04:49:27.608Z,-8.70
2019-01-23T04:50:34.103Z,-8.80
2019-01-23T04:51:54.018Z,-8.90
2019-01-23T04:53:09.442Z,-8.90
2019-01-23T04:54:16.502Z,-8.90
2019-01-23T04:55:21.374Z,-9.00
2019-01-23T04:56:26.362Z,-9.00
2019-01-23T04:57:31.268Z,-9.00
2019-01-23T04:58:36.073Z,-9.00
2019-01-23T04:59:46.798Z,-9.10
2019-01-23T05:00:47.389Z,-9.10
2019-01-23T05:01:52.257Z,-9.10
2019-01-23T05:02:57.176Z,-9.10
2019-01-23T05:04:02.213Z,-9.10
2019-01-23T05:05:07.872Z,-9.20
2019-01-23T05:06:12.828Z,-9.20
2019-01-23T05:07:17.652Z,-9.20
2019-01-23T05:08:22.549Z,-9.20
2019-01-23T05:09:27.441Z,-9.20
2019-01-23T05:10:32.332Z,-9.20
2019-01-23T05:11:38.404Z,-9.10
2019-01-23T05:12:45.045Z,-9.10
2019-01-23T05:13:49.947Z,-9.10
2019-01-23T05:14:54.732Z,-9.10
2019-01-23T05:15:59.648Z,-9.10
2019-01-23T05:17:06.838Z,-9.10
2019-01-23T05:18:11.667Z,-9.10
2019-01-23T05:19:16.431Z,-9.10
2019-01-23T05:20:21.366Z,-9.10
2019-01-23T05:21:26.160Z,-9.10
2019-01-23T05:22:32.299Z,-9.10
2019-01-23T05:23:37.175Z,-9.10
2019-01-23T05:24:41.989Z,-9.10
2019-01-23T05:25:49.093Z,-9.10
2019-01-23T05:26:53.981Z,-9.10
2019-01-23T05:27:58.944Z,-9.20
2019-01-23T05:29:03.729Z,-9.20
2019-01-23T05:30:12.854Z,-9.20
2019-01-23T05:31:17.708Z,-9.20
2019-01-23T05:32:22.714Z,-9.20
2019-01-23T05:33:27.632Z,-9.20
2019-01-23T05:34:32.785Z,-9.10
2019-01-23T05:35:37.694Z,-9.20
2019-01-23T05:36:42.583Z,-9.20
2019-01-23T05:37:47.632Z,-9.20
2019-01-23T05:38:52.624Z,-9.20
2019-01-23T05:39:57.451Z,-9.20
2019-01-23T05:41:02.344Z,-9.30
2019-01-23T05:42:07.247Z,-9.30
2019-01-23T05:43:12.358Z,-9.30
2019-01-23T05:44:17.343Z,-9.30
2019-01-23T05:45:24.953Z,-9.40
2019-01-23T05:46:29.914Z,-9.30
2019-01-23T05:47:34.880Z,-9.30
2019-01-23T05:48:39.815Z,-9.30
2019-01-23T05:49:44.720Z,-9.30
2019-01-23T05:50:49.639Z,-9.30
2019-01-23T05:51:54.632Z,-9.20
2019-01-23T05:52:59.513Z,-9.10
2019-01-23T05:54:04.729Z,-8.90
2019-01-23T05:55:11.044Z,-8.80
2019-01-23T05:56:15.893Z,-8.70
2019-01-23T05:57:20.849Z,-8.50
2019-01-23T05:58:25.843Z,-8.40
2019-01-23T05:59:32.775Z,-8.30
2019-01-23T06:00:37.724Z,-8.20
2019-01-23T06:01:42.590Z,-8.10
2019-01-23T06:02:47.619Z,-8.10
2019-01-23T06:03:52.584Z,-8.00
2019-01-23T06:04:57.479Z,-8.00
2019-01-23T06:06:02.390Z,-7.90
2019-01-23T06:07:09.961Z,-7.90
2019-01-23T06:08:15.109Z,-7.80
2019-01-23T06:09:20.024Z,-7.80
2019-01-23T06:10:26.203Z,-7.70
2019-01-23T06:11:31.096Z,-7.70
2019-01-23T06:12:36.011Z,-7.70
2019-01-23T06:13:41.062Z,-7.60
2019-01-23T06:14:46.229Z,-7.60
2019-01-23T06:15:51.183Z,-7.50
2019-01-23T06:16:56.284Z,-7.50
2019-01-23T06:18:01.164Z,-7.50
2019-01-23T06:19:06.112Z,-7.50
2019-01-23T06:20:13.609Z,-7.50
2019-01-23T06:21:18.464Z,-7.50
2019-01-23T06:22:23.367Z,-7.50
2019-01-23T06:23:28.443Z,-7.50
2019-01-23T06:24:33.539Z,-7.50
2019-01-23T06:25:38.605Z,-7.50
2019-01-23T06:26:43.548Z,-7.40
2019-01-23T06:27:48.923Z,-7.40
2019-01-23T06:28:55.282Z,-7.40
2019-01-23T06:30:10.289Z,-7.40
2019-01-23T06:31:15.196Z,-7.50
2019-01-23T06:32:23.524Z,-7.50
2019-01-23T06:33:33.367Z,-7.50
2019-01-23T06:34:41.677Z,-7.50
2019-01-23T06:35:53.277Z,-7.50
2019-01-23T06:36:58.201Z,-7.50
2019-01-23T06:38:02.976Z,-7.50
2019-01-23T06:39:09.579Z,-7.50
2019-01-23T06:40:15.123Z,-7.60
2019-01-23T06:41:20.055Z,-7.60
2019-01-23T06:42:24.892Z,-7.60
2019-01-23T06:43:29.985Z,-7.70
2019-01-23T06:44:35.170Z,-7.80
2019-01-23T06:45:40.236Z,-7.80
2019-01-23T06:46:45.224Z,-7.90
2019-01-23T06:47:50.812Z,-8.00
2019-01-23T06:48:56.861Z,-8.10
2019-01-23T06:50:02.412Z,-8.10
2019-01-23T06:51:07.505Z,-8.10
2019-01-23T06:52:12.708Z,-8.20
2019-01-23T06:53:18.094Z,-8.30
2019-01-23T06:54:30.406Z,-8.30
2019-01-23T06:55:36.741Z,-8.30
2019-01-23T06:56:41.808Z,-8.30
2019-01-23T06:57:46.897Z,-8.30
2019-01-23T06:58:52.047Z,-8.30
2019-01-23T06:59:57.367Z,-8.40
2019-01-23T07:01:02.755Z,-8.30
2019-01-23T07:02:08.602Z,-8.20
2019-01-23T07:03:14.173Z,-8.20
2019-01-23T07:04:19.699Z,-8.20
2019-01-23T07:05:25.559Z,-8.10
2019-01-23T07:06:32.456Z,-8.00
2019-01-23T07:07:37.438Z,-7.90
2019-01-23T07:08:42.757Z,-7.90
2019-01-23T07:09:49.023Z,-7.90
2019-01-23T07:10:56.362Z,-7.90
2019-01-23T07:12:01.291Z,-8.00
2019-01-23T07:13:06.282Z,-8.00
2019-01-23T07:14:11.186Z,-8.00
2019-01-23T07:15:16.405Z,-8.00
2019-01-23T07:16:21.316Z,-8.00
2019-01-23T07:17:28.395Z,-7.90
2019-01-23T07:18:33.455Z,-7.80
2019-01-23T07:19:38.328Z,-7.70
2019-01-23T07:20:43.377Z,-7.70
2019-01-23T07:21:48.395Z,-7.70
2019-01-23T07:22:53.521Z,-7.50
2019-01-23T07:23:58.601Z,-7.50
2019-01-23T07:25:03.628Z,-7.50
2019-01-23T07:26:08.820Z,-7.40
2019-01-23T07:27:13.806Z,-7.30
2019-01-23T07:28:18.937Z,-7.30
2019-01-23T07:29:23.935Z,-7.20
2019-01-23T07:30:40.623Z,-7.20
2019-01-23T07:31:45.407Z,-7.10
2019-01-23T07:32:51.731Z,-7.10
2019-01-23T07:33:56.809Z,-7.00
2019-01-23T07:35:01.853Z,-6.90
2019-01-23T07:36:07.199Z,-6.90
2019-01-23T07:37:12.274Z,-6.80
2019-01-23T07:38:20.149Z,-6.80
2019-01-23T07:39:25.635Z,-6.80
2019-01-23T07:40:30.846Z,-6.80
2019-01-23T07:41:35.875Z,-6.80
2019-01-23T07:42:40.758Z,-6.70
2019-01-23T07:43:45.649Z,-6.70
2019-01-23T07:44:55.163Z,-6.70
2019-01-23T07:46:00.560Z,-6.60
2019-01-23T07:47:05.904Z,-6.60
2019-01-23T07:48:10.865Z,-6.60
2019-01-23T07:49:15.791Z,-6.50
2019-01-23T07:50:21.087Z,-6.50
2019-01-23T07:51:26.056Z,-6.50
2019-01-23T07:52:33.596Z,-6.40
2019-01-23T07:53:40.071Z,-6.30
2019-01-23T07:54:45.826Z,-6.30
2019-01-23T07:55:50.823Z,-6.20
2019-01-23T07:56:55.876Z,-6.20
2019-01-23T07:58:01.607Z,-6.10
2019-01-23T07:59:06.757Z,-6.10
2019-01-23T08:00:14.965Z,-6.10
2019-01-23T08:01:21.806Z,-6.10
2019-01-23T08:02:27.436Z,-6.10
2019-01-23T08:03:32.477Z,-6.10
2019-01-23T08:04:37.621Z,-6.10
2019-01-23T08:05:42.753Z,-6.00
2019-01-23T08:06:47.753Z,-5.90
2019-01-23T08:07:56.277Z,-5.90
2019-01-23T08:09:01.336Z,-5.90
2019-01-23T08:10:08.073Z,-5.90
2019-01-23T08:11:13.180Z,-5.90
2019-01-23T08:12:18.480Z,-5.90
2019-01-23T08:13:24.240Z,-5.80
2019-01-23T08:14:29.782Z,-5.90
2019-01-23T08:15:37.158Z,-5.90
2019-01-23T08:16:42.465Z,-5.80
2019-01-23T08:17:47.763Z,-5.80
2019-01-23T08:18:52.675Z,-5.70
2019-01-23T08:19:57.817Z,-5.70
2019-01-23T08:21:04.273Z,-5.70
2019-01-23T08:22:09.442Z,-5.60
2019-01-23T08:23:15.770Z,-5.60
2019-01-23T08:24:21.064Z,-5.60
2019-01-23T08:25:26.607Z,-5.50
2019-01-23T08:26:32.010Z,-5.50
2019-01-23T08:27:37.048Z,-5.50
2019-01-23T08:28:42.126Z,-5.40
2019-01-23T08:29:47.259Z,-5.30
2019-01-23T08:30:52.441Z,-5.30
2019-01-23T08:31:57.429Z,-5.30
2019-01-23T08:33:02.983Z,-5.30
2019-01-23T08:34:07.942Z,-5.40
2019-01-23T08:35:13.324Z,-5.40
2019-01-23T08:36:20.689Z,-5.40
2019-01-23T08:37:25.751Z,-5.40
2019-01-23T08:38:31.038Z,-5.40
2019-01-23T08:39:37.405Z,-5.40
2019-01-23T08:40:42.885Z,-5.30
2019-01-23T08:41:48.247Z,-5.30
2019-01-23T08:42:54.850Z,-5.30
2019-01-23T08:44:00.231Z,-5.20
2019-01-23T08:45:06.674Z,-5.10
2019-01-23T08:46:12.186Z,-5.10
2019-01-23T08:47:17.166Z,-5.10
2019-01-23T08:48:22.430Z,-5.10
2019-01-23T08:49:28.496Z,-5.00
2019-01-23T08:50:44.754Z,-5.00
2019-01-23T08:51:50.239Z,-5.00
2019-01-23T08:52:55.286Z,-5.10
2019-01-23T08:54:00.519Z,-5.10
2019-01-23T08:55:06.153Z,-5.00
2019-01-23T08:56:11.284Z,-5.10
2019-01-23T08:57:16.287Z,-5.00
2019-01-23T08:58:21.503Z,-5.00
2019-01-23T08:59:26.586Z,-5.00
2019-01-23T09:00:32.147Z,-5.00
2019-01-23T09:01:37.198Z,-5.00
2019-01-23T09:02:42.484Z,-5.00
2019-01-23T09:03:49.368Z,-5.10
2019-01-23T09:04:56.217Z,-5.00
2019-01-23T09:06:01.492Z,-5.00
2019-01-23T09:07:08.230Z,-4.90
2019-01-23T09:08:13.494Z,-5.00
2019-01-23T09:09:21.100Z,-4.90
2019-01-23T09:10:26.457Z,-4.90
2019-01-23T09:11:31.549Z,-4.90
2019-01-23T09:12:36.548Z,-4.90
2019-01-23T09:13:41.642Z,-4.90
2019-01-23T09:14:46.722Z,-4.90
2019-01-23T09:15:51.809Z,-4.90
2019-01-23T09:16:56.909Z,-4.90
2019-01-23T09:18:02.063Z,-4.90
2019-01-23T09:19:07.517Z,-4.90
2019-01-23T09:20:13.450Z,-4.90
2019-01-23T09:21:18.534Z,-4.90
2019-01-23T09:22:23.759Z,-4.90
2019-01-23T09:23:28.975Z,-4.80
2019-01-23T09:24:34.472Z,-4.80
2019-01-23T09:25:39.542Z,-4.70
2019-01-23T09:26:44.576Z,-4.70
2019-01-23T09:27:51.102Z,-4.60
2019-01-23T09:28:56.009Z,-4.70
2019-01-23T09:30:01.401Z,-4.60
2019-01-23T09:31:55.868Z,-4.60
2019-01-23T09:34:00.360Z,-4.50
2019-01-23T09:35:32.041Z,-4.50
2019-01-23T09:37:36.036Z,-4.50
2019-01-23T09:39:15.104Z,-4.40
2019-01-23T09:40:38.712Z,-4.40
2019-01-23T09:42:14.544Z,-4.50
2019-01-23T09:44:02.227Z,-4.40
2019-01-23T09:45:42.576Z,-4.20
2019-01-23T09:47:10.855Z,-4.10
2019-01-23T09:48:30.880Z,-4.10
2019-01-23T09:50:15.677Z,-4.00
2019-01-23T09:51:56.305Z,-3.90
2019-01-23T09:53:32.546Z,-3.90
2019-01-23T09:54:38.128Z,-3.80
2019-01-23T09:55:44.469Z,-3.80
2019-01-23T09:56:50.788Z,-3.70
2019-01-23T09:57:59.185Z,-3.70
2019-01-23T09:59:04.308Z,-3.60
2019-01-23T10:00:13.746Z,-3.50
2019-01-23T10:01:18.967Z,-3.40
2019-01-23T10:02:23.909Z,-3.40
2019-01-23T10:03:28.946Z,-3.30
2019-01-23T10:04:35.554Z,-3.20
2019-01-23T10:05:43.345Z,-3.10
2019-01-23T10:06:48.254Z,-3.00
2019-01-23T10:07:53.463Z,-2.90
2019-01-23T10:08:58.736Z,-2.90
2019-01-23T10:10:03.781Z,-2.80
2019-01-23T10:11:10.385Z,-2.90
2019-01-23T10:12:15.675Z,-2.80
2019-01-23T10:13:22.406Z,-2.70
2019-01-23T10:14:27.723Z,-2.60
2019-01-23T10:16:05.328Z,-2.50
2019-01-23T10:17:10.773Z,-2.50
2019-01-23T10:18:16.319Z,-2.50
2019-01-23T10:19:23.256Z,-2.50
2019-01-23T10:20:30.392Z,-2.50
2019-01-23T10:21:35.806Z,-2.40
2019-01-23T10:22:40.934Z,-2.40
2019-01-23T10:23:49.172Z,-2.40
2019-01-23T10:24:54.472Z,-2.50
2019-01-23T10:25:59.838Z,-2.40
2019-01-23T10:27:05.224Z,-2.40
2019-01-23T10:28:10.300Z,-2.40
2019-01-23T10:29:17.791Z,-2.40
2019-01-23T10:30:23.202Z,-2.40
2019-01-23T10:31:28.540Z,-2.30
2019-01-23T10:32:33.893Z,-2.40
2019-01-23T10:33:39.062Z,-2.30
2019-01-23T10:34:44.174Z,-2.40
2019-01-23T10:35:49.385Z,-2.40
2019-01-23T10:36:54.753Z,-2.30
2019-01-23T10:37:59.879Z,-2.30
2019-01-23T10:39:07.453Z,-2.40
2019-01-23T10:40:16.850Z,-2.40
2019-01-23T10:41:25.649Z,-2.40
2019-01-23T10:42:33.381Z,-2.40
2019-01-23T10:43:40.129Z,-2.50
2019-01-23T10:44:45.254Z,-2.50
2019-01-23T10:45:50.771Z,-2.70
2019-01-23T10:46:55.996Z,-2.60
2019-01-23T10:48:01.153Z,-2.50
2019-01-23T10:49:06.507Z,-2.60
2019-01-23T10:50:14.460Z,-2.70
2019-01-23T10:51:19.810Z,-2.70
2019-01-23T10:52:25.157Z,-2.80
2019-01-23T10:53:32.862Z,-2.80
2019-01-23T10:54:42.444Z,-2.80
2019-01-23T10:55:47.398Z,-2.60
2019-01-23T10:56:53.601Z,-2.60
2019-01-23T10:58:01.224Z,-2.50
2019-01-23T10:59:06.495Z,-2.50
2019-01-23T11:00:14.979Z,-2.50
2019-01-23T11:01:20.405Z,-2.50
2019-01-23T11:02:25.626Z,-2.40
2019-01-23T11:03:30.893Z,-2.40
2019-01-23T11:04:37.096Z,-2.50
2019-01-23T11:05:42.527Z,-2.50
2019-01-23T11:06:47.822Z,-2.50
2019-01-23T11:07:53.086Z,-2.50
2019-01-23T11:08:58.440Z,-2.40
2019-01-23T11:10:03.785Z,-2.30
2019-01-23T11:11:10.367Z,-2.30
2019-01-23T11:12:15.587Z,-2.30
2019-01-23T11:13:20.881Z,-2.30
2019-01-23T11:14:26.145Z,-2.20
2019-01-23T11:15:31.485Z,-2.20
2019-01-23T11:16:39.394Z,-2.20
2019-01-23T11:17:44.915Z,-2.20
2019-01-23T11:18:50.299Z,-2.10
2019-01-23T11:19:55.656Z,-2.10
2019-01-23T11:21:01.439Z,-2.10
2019-01-23T11:22:07.201Z,-2.20
2019-01-23T11:23:12.690Z,-2.30
2019-01-23T11:24:18.218Z,-2.40
2019-01-23T11:25:23.543Z,-2.50
2019-01-23T11:26:28.768Z,-2.50
2019-01-23T11:27:34.037Z,-2.50
2019-01-23T11:28:42.363Z,-2.40
2019-01-23T11:29:47.517Z,-2.30
2019-01-23T11:30:53.216Z,-2.20
2019-01-23T11:31:58.812Z,-2.10
2019-01-23T11:33:04.289Z,-2.10
2019-01-23T11:34:09.735Z,-2.10
2019-01-23T11:35:15.697Z,-2.00
2019-01-23T11:36:21.088Z,-2.10
2019-01-23T11:37:26.204Z,-2.00
2019-01-23T11:38:31.665Z,-2.00
2019-01-23T11:39:36.944Z,-1.80
2019-01-23T11:40:42.325Z,-1.80
2019-01-23T11:41:47.540Z,-1.70
2019-01-23T11:42:52.709Z,-1.50
2019-01-23T11:43:57.956Z,-1.30
2019-01-23T11:45:04.030Z,-1.20
2019-01-23T11:46:09.173Z,-1.00
2019-01-23T11:47:14.344Z,-0.80
2019-01-23T11:48:19.683Z,-0.60
2019-01-23T11:49:25.145Z,-0.50
2019-01-23T11:50:30.360Z,-0.40
2019-01-23T11:51:35.662Z,-0.30
2019-01-23T11:52:40.851Z,-0.10
2019-01-23T11:53:46.027Z,0.00
2019-01-23T11:54:51.196Z,0.30
2019-01-23T11:55:56.612Z,0.50
2019-01-23T11:57:01.771Z,0.90
2019-01-23T11:58:07.029Z,1.10
2019-01-23T11:59:12.282Z,1.50
2019-01-23T12:00:19.951Z,2.20
2019-01-23T12:01:27.669Z,2.90
2019-01-23T12:02:33.875Z,3.40
2019-01-23T12:03:38.962Z,4.10
2019-01-23T12:04:44.055Z,4.70
2019-01-23T12:05:49.230Z,4.70
2019-01-23T12:06:54.543Z,4.80
2019-01-23T12:08:00.006Z,5.00
2019-01-23T12:09:08.605Z,5.60
2019-01-23T12:10:16.675Z,6.20
2019-01-23T12:11:22.565Z,7.00
2019-01-23T12:12:28.126Z,7.40
2019-01-23T12:13:33.256Z,7.80
2019-01-23T12:14:38.478Z,8.00
2019-01-23T12:15:43.757Z,8.20
2019-01-23T12:16:48.968Z,8.30
2019-01-23T12:17:55.004Z,8.40
2019-01-23T12:18:59.959Z,8.10
2019-01-23T12:20:06.053Z,7.90
2019-01-23T12:21:11.449Z,7.80
2019-01-23T12:22:16.637Z,7.40
2019-01-23T12:23:22.097Z,7.00
2019-01-23T12:24:27.633Z,6.50
2019-01-23T12:25:38.827Z,5.80
2019-01-23T12:26:44.140Z,5.00
2019-01-23T12:27:49.329Z,4.20
2019-01-23T12:28:54.668Z,3.50
2019-01-23T12:29:59.996Z,2.80
2019-01-23T12:31:05.127Z,2.40
2019-01-23T12:32:10.414Z,1.80
2019-01-23T12:33:15.649Z,1.30
2019-01-23T12:34:21.319Z,0.90
2019-01-23T12:35:26.782Z,0.50
2019-01-23T12:36:31.910Z,0.10
2019-01-23T12:37:37.144Z,-0.30
2019-01-23T12:38:42.169Z,-0.50
2019-01-23T12:39:47.665Z,-0.80
2019-01-23T12:40:52.717Z,-1.10
2019-01-23T12:41:57.924Z,-1.20
2019-01-23T12:43:03.144Z,-1.30
2019-01-23T12:44:08.695Z,-1.40
2019-01-23T12:45:19.881Z,-1.50
2019-01-23T12:46:24.998Z,-1.60
2019-01-23T12:47:30.121Z,-1.70
2019-01-23T12:48:35.277Z,-1.70
2019-01-23T12:49:43.366Z,-1.80
2019-01-23T12:50:48.626Z,-1.80
2019-01-23T12:51:53.739Z,-1.90
2019-01-23T12:53:00.090Z,-1.90
2019-01-23T12:54:05.247Z,-2.00
2019-01-23T12:55:10.938Z,-2.10
2019-01-23T12:56:18.452Z,-2.20
2019-01-23T12:57:24.262Z,-2.20
2019-01-23T12:58:29.280Z,-2.30
2019-01-23T12:59:34.699Z,-2.30
2019-01-23T13:00:40.137Z,-2.40
2019-01-23T13:01:46.957Z,-2.40
2019-01-23T13:02:52.584Z,-2.40
2019-01-23T13:03:57.848Z,-2.40
2019-01-23T13:05:04.369Z,-2.50
2019-01-23T13:06:09.748Z,-2.60
2019-01-23T13:07:15.580Z,-2.70
2019-01-23T13:08:20.961Z,-2.70
2019-01-23T13:09:26.326Z,-2.60
2019-01-23T13:10:31.908Z,-2.70
2019-01-23T13:11:37.338Z,-2.70
2019-01-23T13:12:42.670Z,-2.70
2019-01-23T13:13:48.169Z,-2.70
2019-01-23T13:14:53.572Z,-2.70
2019-01-23T13:15:59.143Z,-2.70
2019-01-23T13:17:04.926Z,-2.80
2019-01-23T13:18:10.557Z,-2.80
2019-01-23T13:19:15.816Z,-2.90
2019-01-23T13:20:22.637Z,-2.80
2019-01-23T13:21:28.195Z,-2.80
2019-01-23T13:22:33.685Z,-2.80
2019-01-23T13:23:39.105Z,-2.80
2019-01-23T13:24:44.486Z,-2.80
2019-01-23T13:25:49.854Z,-2.80
2019-01-23T13:26:55.360Z,-2.70
2019-01-23T13:28:02.615Z,-2.80
2019-01-23T13:29:07.728Z,-2.90
2019-01-23T13:30:16.247Z,-3.00
2019-01-23T13:31:21.548Z,-3.00
2019-01-23T13:32:28.803Z,-3.00
2019-01-23T13:33:34.601Z,-3.00
2019-01-23T13:34:40.084Z,-3.00
2019-01-23T13:35:45.276Z,-3.00
2019-01-23T13:36:50.510Z,-3.00
2019-01-23T13:37:55.887Z,-3.10
2019-01-23T13:39:01.028Z,-3.00
2019-01-23T13:40:10.345Z,-3.00
2019-01-23T13:41:15.726Z,-3.10
2019-01-23T13:42:20.900Z,-3.00
2019-01-23T13:43:26.244Z,-3.00
2019-01-23T13:44:31.307Z,-3.10
2019-01-23T13:45:36.495Z,-3.10
2019-01-23T13:46:42.169Z,-3.10
2019-01-23T13:47:47.619Z,-3.10
2019-01-23T13:48:53.234Z,-3.10
2019-01-23T13:49:58.568Z,-3.20
2019-01-23T13:51:03.697Z,-3.20
2019-01-23T13:52:09.137Z,-3.30
2019-01-23T13:53:14.489Z,-3.30
2019-01-23T13:54:19.596Z,-3.30
2019-01-23T13:55:25.821Z,-3.30
2019-01-23T13:56:34.085Z,-3.30
2019-01-23T13:57:39.417Z,-3.30
2019-01-23T13:58:44.566Z,-3.30
2019-01-23T13:59:49.602Z,-3.30
2019-01-23T14:00:55.048Z,-3.30
2019-01-23T14:02:00.265Z,-3.30
2019-01-23T14:03:06.192Z,-3.30
2019-01-23T14:04:11.337Z,-3.30
2019-01-23T14:05:17.144Z,-3.30
2019-01-23T14:06:22.403Z,-3.30
2019-01-23T14:07:27.801Z,-3.40
2019-01-23T14:08:33.038Z,-3.40
2019-01-23T14:09:38.477Z,-3.40
2019-01-23T14:10:43.832Z,-3.40
2019-01-23T14:11:48.955Z,-3.40
2019-01-23T14:12:54.635Z,-3.40
2019-01-23T14:14:00.540Z,-3.40